createdAt,value
2018-06-22T00:01:46.540Z,14.40
2018-06-22T00:04:15.129Z,14.36
2018-06-22T00:06:43.725Z,14.35
2018-06-22T00:09:12.298Z,14.28
2018-06-22T00:11:40.819Z,14.29
2018-06-22T00:14:09.339Z,14.28
2018-06-22T00:16:38.118Z,14.41
2018-06-22T00:19:06.552Z,14.29
2018-06-22T00:21:35.210Z,14.18
2018-06-22T00:24:03.683Z,14.16
2018-06-22T00:26:32.082Z,14.06
2018-06-22T00:29:00.736Z,14.00
2018-06-22T00:31:29.265Z,13.95
2018-06-22T00:33:57.635Z,13.92
2018-06-22T00:36:26.260Z,13.88
2018-06-22T00:38:55.413Z,13.78
2018-06-22T00:41:24.082Z,13.71
2018-06-22T00:43:52.865Z,13.75
2018-06-22T00:46:21.479Z,13.76
2018-06-22T00:48:50.157Z,13.63
2018-06-22T00:51:18.796Z,13.63
2018-06-22T00:54:04.403Z,13.68
2018-06-22T00:56:32.888Z,13.62
2018-06-22T00:59:01.526Z,13.67
2018-06-22T01:01:29.782Z,13.61
2018-06-22T01:03:58.177Z,13.66
2018-06-22T01:06:26.660Z,13.58
2018-06-22T01:08:55.111Z,13.53
2018-06-22T01:11:23.875Z,13.58
2018-06-22T01:13:52.396Z,13.49
2018-06-22T01:16:21.364Z,13.53
2018-06-22T01:18:49.808Z,13.57
2018-06-22T01:21:18.851Z,13.62
2018-06-22T01:23:47.622Z,13.53
2018-06-22T01:26:16.149Z,13.50
2018-06-22T01:28:44.428Z,13.45
2018-06-22T01:31:12.891Z,13.44
2018-06-22T01:33:41.272Z,13.33
2018-06-22T01:36:09.870Z,13.44
2018-06-22T01:38:38.504Z,13.63
2018-06-22T01:41:07.271Z,13.63
2018-06-22T01:43:36.697Z,13.63
2018-06-22T01:46:05.392Z,13.66
2018-06-22T01:48:33.873Z,13.63
2018-06-22T01:51:02.273Z,13.74
2018-06-22T01:53:31.048Z,13.79
2018-06-22T01:55:59.712Z,13.72
2018-06-22T01:58:28.212Z,13.70
2018-06-22T02:00:56.830Z,13.74
2018-06-22T02:03:25.274Z,13.89
2018-06-22T02:05:54.002Z,13.76
2018-06-22T02:08:22.532Z,13.73
2018-06-22T02:10:50.976Z,13.81
2018-06-22T02:13:19.665Z,13.82
2018-06-22T02:15:47.992Z,13.84
2018-06-22T02:18:16.397Z,13.76
2018-06-22T02:20:45.255Z,13.83
2018-06-22T02:23:13.811Z,13.76
2018-06-22T02:25:42.031Z,13.87
2018-06-22T02:28:10.667Z,13.91
2018-06-22T02:30:39.119Z,13.89
2018-06-22T02:33:07.726Z,13.86
2018-06-22T02:35:36.115Z,13.71
2018-06-22T02:38:05.252Z,13.81
2018-06-22T02:40:33.825Z,13.72
2018-06-22T02:43:02.296Z,13.81
2018-06-22T02:45:30.838Z,13.60
2018-06-22T02:47:59.526Z,13.64
2018-06-22T02:50:27.856Z,13.63
2018-06-22T02:52:56.351Z,13.57
2018-06-22T02:55:24.960Z,13.63
2018-06-22T02:57:53.465Z,13.57
2018-06-22T03:00:22.022Z,13.62
2018-06-22T03:02:50.667Z,13.55
2018-06-22T03:05:19.178Z,13.56
2018-06-22T03:07:47.598Z,13.56
2018-06-22T03:10:15.920Z,13.50
2018-06-22T03:12:44.489Z,13.62
2018-06-22T03:15:13.069Z,13.61
2018-06-22T03:17:41.573Z,13.60
2018-06-22T03:20:10.186Z,13.54
2018-06-22T03:22:38.636Z,13.52
2018-06-22T03:25:07.069Z,13.60
2018-06-22T03:27:35.299Z,13.63
2018-06-22T03:30:03.949Z,13.79
2018-06-22T03:32:32.432Z,13.80
2018-06-22T03:35:01.013Z,13.76
2018-06-22T03:37:29.929Z,13.75
2018-06-22T03:39:58.443Z,13.75
2018-06-22T03:42:27.046Z,13.79
2018-06-22T03:44:55.588Z,13.92
2018-06-22T03:47:24.101Z,13.88
2018-06-22T03:49:52.520Z,13.92
2018-06-22T03:52:20.984Z,14.02
2018-06-22T03:54:49.327Z,13.94
2018-06-22T03:57:17.851Z,14.05
2018-06-22T03:59:46.195Z,14.13
2018-06-22T04:02:14.766Z,14.10
2018-06-22T04:04:43.132Z,14.17
2018-06-22T04:07:11.599Z,14.21
2018-06-22T04:09:40.325Z,14.21
2018-06-22T04:12:08.832Z,14.19
2018-06-22T04:14:37.420Z,14.14
2018-06-22T04:17:05.856Z,14.27
2018-06-22T04:19:34.292Z,14.27
2018-06-22T04:22:02.665Z,14.28
2018-06-22T04:24:31.145Z,14.35
2018-06-22T04:26:59.527Z,14.21
2018-06-22T04:29:27.928Z,14.26
2018-06-22T04:31:56.282Z,14.21
2018-06-22T04:34:24.918Z,14.20
2018-06-22T04:36:53.640Z,14.31
2018-06-22T04:39:22.145Z,14.24
2018-06-22T04:41:50.614Z,14.29
2018-06-22T04:44:18.955Z,14.40
2018-06-22T04:46:47.451Z,14.46
2018-06-22T04:49:16.022Z,14.56
2018-06-22T04:51:44.780Z,14.59
2018-06-22T04:54:13.306Z,14.59
2018-06-22T04:56:41.778Z,14.54
2018-06-22T04:59:10.308Z,14.48
2018-06-22T05:01:38.944Z,14.49
2018-06-22T05:04:07.500Z,14.32
2018-06-22T05:06:36.293Z,14.33
2018-06-22T05:09:07.503Z,14.35
2018-06-22T05:11:36.021Z,14.39
2018-06-22T05:14:04.597Z,14.36
2018-06-22T05:16:33.151Z,14.35
2018-06-22T05:19:02.080Z,14.43
2018-06-22T05:21:30.621Z,14.49
2018-06-22T05:23:58.865Z,14.56
2018-06-22T05:26:27.816Z,14.51
2018-06-22T05:28:56.221Z,14.37
2018-06-22T05:31:25.286Z,14.47
2018-06-22T05:33:54.128Z,14.40
2018-06-22T05:36:22.770Z,14.48
2018-06-22T05:38:51.290Z,14.49
2018-06-22T05:41:19.784Z,14.53
2018-06-22T05:43:50.352Z,14.47
2018-06-22T05:46:33.463Z,14.38
2018-06-22T05:49:03.194Z,14.34
2018-06-22T05:51:31.681Z,14.42
2018-06-22T05:54:00.378Z,14.55
2018-06-22T05:56:28.995Z,14.71
2018-06-22T05:59:00.227Z,14.72
2018-06-22T06:01:29.221Z,14.80
2018-06-22T06:03:57.663Z,14.88
2018-06-22T06:06:29.036Z,14.83
2018-06-22T06:08:57.720Z,14.80
2018-06-22T06:11:26.145Z,14.71
2018-06-22T06:13:54.682Z,14.76
2018-06-22T06:16:23.184Z,14.78
2018-06-22T06:18:51.787Z,14.87
2018-06-22T06:21:20.410Z,14.82
2018-06-22T06:23:48.805Z,14.67
2018-06-22T06:26:17.334Z,14.60
2018-06-22T06:28:46.131Z,14.62
2018-06-22T06:31:14.665Z,14.80
2018-06-22T06:33:43.478Z,14.76
2018-06-22T06:36:11.875Z,14.79
2018-06-22T06:38:40.293Z,14.78
2018-06-22T06:41:09.120Z,14.74
2018-06-22T06:43:37.899Z,14.81
2018-06-22T06:46:06.424Z,14.85
2018-06-22T06:48:35.077Z,14.94
2018-06-22T06:51:03.663Z,15.00
2018-06-22T06:53:32.093Z,15.04
2018-06-22T06:56:00.843Z,15.14
2018-06-22T06:58:29.778Z,15.17
2018-06-22T07:00:58.124Z,15.16
2018-06-22T07:03:26.619Z,15.28
2018-06-22T07:05:55.265Z,15.14
2018-06-22T07:08:24.194Z,15.17
2018-06-22T07:10:52.864Z,14.97
2018-06-22T07:13:21.292Z,15.09
2018-06-22T07:15:49.721Z,15.02
2018-06-22T07:18:18.405Z,15.20
2018-06-22T07:20:47.216Z,15.13
2018-06-22T07:23:16.095Z,15.18
2018-06-22T07:25:45.027Z,14.94
2018-06-22T07:28:13.332Z,14.79
2018-06-22T07:30:42.092Z,14.49
2018-06-22T07:33:10.549Z,14.53
2018-06-22T07:35:38.932Z,14.64
2018-06-22T07:38:07.630Z,14.75
2018-06-22T07:40:36.216Z,14.72
2018-06-22T07:43:04.900Z,14.78
2018-06-22T07:45:33.177Z,14.88
2018-06-22T07:48:01.525Z,14.87
2018-06-22T07:50:29.890Z,14.70
2018-06-22T07:52:58.572Z,14.66
2018-06-22T07:55:27.122Z,14.78
2018-06-22T07:57:55.849Z,14.67
2018-06-22T08:00:24.295Z,14.72
2018-06-22T08:02:53.046Z,14.70
2018-06-22T08:05:21.438Z,14.78
2018-06-22T08:07:50.023Z,14.89
2018-06-22T08:10:18.559Z,14.89
2018-06-22T08:12:47.878Z,14.78
2018-06-22T08:15:16.873Z,14.63
2018-06-22T08:17:50.672Z,14.84
2018-06-22T08:20:28.404Z,15.21
2018-06-22T08:22:57.091Z,15.40
2018-06-22T08:25:25.680Z,15.51
2018-06-22T08:27:55.743Z,15.89
2018-06-22T08:30:29.953Z,15.69
2018-06-22T08:32:59.311Z,15.57
2018-06-22T08:35:29.389Z,15.73
2018-06-22T08:37:59.186Z,15.86
2018-06-22T08:40:31.640Z,15.81
2018-06-22T08:43:03.950Z,15.63
2018-06-22T08:45:33.681Z,15.86
2018-06-22T08:48:03.120Z,15.68
2018-06-22T08:50:36.824Z,15.18
2018-06-22T08:53:06.662Z,15.12
2018-06-22T08:55:35.236Z,15.17
2018-06-22T08:58:07.859Z,15.25
2018-06-22T09:00:37.921Z,15.38
2018-06-22T09:03:10.434Z,15.56
2018-06-22T09:05:40.905Z,15.42
2018-06-22T09:08:09.698Z,15.30
2018-06-22T09:10:38.306Z,15.46
2018-06-22T09:13:06.956Z,15.67
2018-06-22T09:15:37.777Z,15.90
2018-06-22T09:18:08.564Z,16.16
2018-06-22T09:20:37.906Z,16.08
2018-06-22T09:23:08.745Z,15.71
2018-06-22T09:25:40.074Z,16.17
2018-06-22T09:28:09.976Z,16.44
2018-06-22T09:30:38.686Z,16.96
2018-06-22T09:33:07.457Z,17.33
2018-06-22T09:35:43.985Z,17.28
2018-06-22T09:38:13.864Z,17.14
2018-06-22T09:40:42.908Z,17.32
2018-06-22T09:43:13.788Z,17.22
2018-06-22T09:45:42.760Z,17.08
2018-06-22T09:48:14.371Z,17.01
2018-06-22T09:50:46.617Z,17.18
2018-06-22T09:53:18.026Z,17.55
2018-06-22T09:55:46.532Z,17.74
2018-06-22T09:58:20.330Z,17.86
2018-06-22T10:00:52.511Z,18.01
2018-06-22T10:03:22.962Z,18.03
2018-06-22T10:05:52.100Z,18.03
2018-06-22T10:08:21.066Z,17.99
2018-06-22T10:10:53.817Z,17.84
2018-06-22T10:13:23.850Z,17.61
2018-06-22T10:16:05.805Z,17.55
2018-06-22T10:18:36.729Z,17.63
2018-06-22T10:21:08.467Z,17.53
2018-06-22T10:23:38.674Z,17.51
2018-06-22T10:26:09.931Z,17.50
2018-06-22T10:28:39.710Z,17.21
2018-06-22T10:31:11.232Z,17.01
2018-06-22T10:33:41.365Z,16.93
2018-06-22T10:36:11.297Z,17.03
2018-06-22T10:38:39.902Z,17.20
2018-06-22T10:41:08.774Z,17.39
2018-06-22T10:43:37.473Z,17.59
2018-06-22T10:46:10.117Z,17.59
2018-06-22T10:48:38.768Z,17.23
2018-06-22T10:51:07.558Z,17.05
2018-06-22T10:53:36.167Z,17.29
2018-06-22T10:56:11.941Z,17.61
2018-06-22T10:58:41.324Z,17.63
2018-06-22T11:01:12.259Z,17.63
2018-06-22T11:03:41.705Z,17.48
2018-06-22T11:06:11.118Z,17.14
2018-06-22T11:08:41.336Z,17.03
2018-06-22T11:11:09.815Z,17.14
2018-06-22T11:13:38.669Z,17.14
2018-06-22T11:16:07.226Z,17.02
2018-06-22T11:18:35.955Z,17.06
2018-06-22T11:21:05.120Z,17.13
2018-06-22T11:23:33.455Z,17.28
2018-06-22T11:26:02.158Z,17.40
2018-06-22T11:28:32.468Z,17.34
2018-06-22T11:31:01.970Z,17.40
2018-06-22T11:33:30.545Z,17.56
2018-06-22T11:35:59.672Z,17.80
2018-06-22T11:38:28.446Z,18.07
2018-06-22T11:40:57.259Z,18.01
2018-06-22T11:43:25.634Z,17.90
2018-06-22T11:45:55.141Z,17.58
2018-06-22T11:48:23.802Z,17.55
2018-06-22T11:50:52.275Z,17.23
2018-06-22T11:53:21.040Z,17.22
2018-06-22T11:55:49.854Z,17.56
2018-06-22T11:58:18.716Z,17.66
2018-06-22T12:00:47.568Z,17.69
2018-06-22T12:03:16.737Z,17.88
2018-06-22T12:05:45.676Z,18.07
2018-06-22T12:08:14.617Z,18.44
2018-06-22T12:10:43.267Z,18.74
2018-06-22T12:13:11.808Z,18.73
2018-06-22T12:15:40.231Z,18.71
2018-06-22T12:18:08.866Z,18.64
2018-06-22T12:20:37.557Z,18.49
2018-06-22T12:23:06.396Z,18.59
2018-06-22T12:25:35.216Z,18.36
2018-06-22T12:28:03.764Z,18.57
2018-06-22T12:30:33.994Z,18.25
2018-06-22T12:33:02.659Z,18.30
2018-06-22T12:35:31.405Z,18.52
2018-06-22T12:37:59.966Z,18.52
2018-06-22T12:40:28.528Z,18.63
2018-06-22T12:42:57.147Z,18.56
2018-06-22T12:45:26.180Z,18.59
2018-06-22T12:47:55.469Z,18.17
2018-06-22T12:50:24.455Z,17.72
2018-06-22T12:52:52.904Z,17.24
2018-06-22T12:55:21.368Z,17.33
2018-06-22T12:57:50.101Z,17.92
2018-06-22T13:00:18.654Z,18.56
2018-06-22T13:02:47.278Z,19.09
2018-06-22T13:05:15.951Z,18.32
2018-06-22T13:07:44.412Z,18.39
2018-06-22T13:10:13.001Z,18.81
2018-06-22T13:12:41.526Z,18.66
2018-06-22T13:15:10.092Z,18.10
2018-06-22T13:17:38.666Z,18.48
2018-06-22T13:20:07.336Z,19.43
2018-06-22T13:22:36.157Z,20.07
2018-06-22T13:25:04.955Z,20.31
2018-06-22T13:27:33.637Z,20.53
2018-06-22T13:30:02.165Z,20.89
2018-06-22T13:32:30.796Z,20.61
2018-06-22T13:34:59.346Z,19.79
2018-06-22T13:37:27.828Z,20.27
2018-06-22T13:39:56.894Z,20.99
2018-06-22T13:42:25.720Z,21.34
2018-06-22T13:44:55.424Z,21.36
2018-06-22T13:47:24.498Z,21.44
2018-06-22T13:49:53.557Z,21.47
2018-06-22T13:52:22.250Z,21.81
2018-06-22T13:54:50.803Z,21.98
2018-06-22T13:57:19.554Z,22.08
2018-06-22T13:59:48.202Z,21.54
2018-06-22T14:02:16.763Z,21.17
2018-06-22T14:04:51.162Z,20.80
2018-06-22T14:07:20.017Z,20.65
2018-06-22T14:09:48.702Z,20.84
2018-06-22T14:12:18.112Z,21.19
2018-06-22T14:14:46.746Z,21.12
2018-06-22T14:17:15.297Z,20.27
2018-06-22T14:19:44.014Z,19.91
2018-06-22T14:22:12.592Z,20.21
2018-06-22T14:24:41.323Z,20.20
2018-06-22T14:27:09.745Z,19.96
2018-06-22T14:29:38.422Z,19.87
2018-06-22T14:32:07.251Z,19.72
2018-06-22T14:34:35.982Z,19.74
2018-06-22T14:37:05.028Z,19.79
2018-06-22T14:39:33.505Z,19.64
2018-06-22T14:42:02.322Z,19.30
2018-06-22T14:44:30.898Z,19.36
2018-06-22T14:46:59.376Z,19.22
2018-06-22T14:49:27.842Z,19.52
2018-06-22T14:52:01.456Z,19.63
2018-06-22T14:54:35.892Z,19.59
2018-06-22T14:57:10.015Z,19.55
2018-06-22T14:59:44.311Z,19.30
2018-06-22T15:02:18.575Z,19.03
2018-06-22T15:04:52.812Z,19.25
2018-06-22T15:07:26.974Z,19.97
2018-06-22T15:09:55.582Z,20.48
2018-06-22T15:12:24.214Z,20.37
2018-06-22T15:14:52.887Z,20.34
2018-06-22T15:17:22.263Z,20.97
2018-06-22T15:19:50.789Z,21.67
2018-06-22T15:22:19.455Z,22.04
2018-06-22T15:24:48.143Z,21.09
2018-06-22T15:27:16.825Z,20.47
2018-06-22T15:29:45.445Z,20.42
2018-06-22T15:32:14.194Z,19.51
2018-06-22T15:34:48.626Z,18.85
2018-06-22T15:37:22.788Z,18.61
2018-06-22T15:40:55.874Z,18.52
2018-06-22T15:43:29.981Z,18.37
2018-06-22T15:46:04.327Z,18.44
2018-06-22T15:48:45.735Z,18.68
2018-06-22T15:51:20.006Z,18.79
2018-06-22T15:53:54.187Z,18.81
2018-06-22T15:56:23.651Z,19.07
2018-06-22T15:58:52.455Z,19.12
2018-06-22T16:01:21.273Z,19.15
2018-06-22T16:03:55.541Z,19.08
2018-06-22T16:06:24.435Z,18.80
2018-06-22T16:08:53.328Z,18.87
2018-06-22T16:11:26.120Z,18.94
2018-06-22T16:14:00.561Z,18.81
2018-06-22T16:16:35.305Z,18.70
2018-06-22T16:19:09.422Z,18.91
2018-06-22T16:21:43.419Z,19.12
2018-06-22T16:24:17.607Z,19.17
2018-06-22T16:26:51.917Z,19.13
2018-06-22T16:29:20.373Z,19.16
2018-06-22T16:31:48.998Z,18.92
2018-06-22T16:34:17.437Z,19.24
2018-06-22T16:36:47.640Z,19.31
2018-06-22T16:39:16.329Z,19.09
2018-06-22T16:41:44.904Z,19.26
2018-06-22T16:44:13.705Z,19.35
2018-06-22T16:46:42.353Z,19.38
2018-06-22T16:49:11.204Z,19.14
2018-06-22T16:51:41.954Z,18.93
2018-06-22T16:54:10.339Z,19.15
2018-06-22T16:56:38.964Z,19.03
2018-06-22T16:59:07.614Z,18.81
2018-06-22T17:01:35.923Z,18.52
2018-06-22T17:04:04.640Z,18.32
2018-06-22T17:06:38.960Z,18.41
2018-06-22T17:09:14.194Z,18.28
2018-06-22T17:11:48.387Z,17.99
2018-06-22T17:14:22.712Z,18.01
2018-06-22T17:16:56.905Z,17.88
2018-06-22T17:19:25.547Z,17.80
2018-06-22T17:21:54.123Z,17.97
2018-06-22T17:24:22.840Z,18.12
2018-06-22T17:26:51.166Z,18.06
2018-06-22T17:29:19.571Z,18.22
2018-06-22T17:31:48.452Z,18.26
2018-06-22T17:34:19.565Z,18.25
2018-06-22T17:36:48.362Z,18.14
2018-06-22T17:39:17.120Z,17.87
2018-06-22T17:41:45.987Z,17.65
2018-06-22T17:44:14.326Z,17.73
2018-06-22T17:46:42.903Z,17.73
2018-06-22T17:49:11.499Z,17.62
2018-06-22T17:51:40.956Z,17.38
2018-06-22T17:54:09.761Z,17.21
2018-06-22T17:56:38.589Z,17.07
2018-06-22T17:59:12.694Z,17.11
2018-06-22T18:02:45.863Z,17.08
2018-06-22T18:05:20.081Z,17.17
2018-06-22T18:07:49.205Z,17.09
2018-06-22T18:10:23.396Z,17.12
2018-06-22T18:12:54.796Z,17.00
2018-06-22T18:15:23.439Z,17.05
2018-06-22T18:17:52.062Z,16.90
2018-06-22T18:20:20.859Z,17.01
2018-06-22T18:22:49.538Z,17.14
2018-06-22T18:25:18.322Z,17.12
2018-06-22T18:27:47.004Z,17.27
2018-06-22T18:30:16.227Z,17.19
2018-06-22T18:32:44.788Z,17.08
2018-06-22T18:35:14.693Z,17.10
2018-06-22T18:37:43.470Z,17.15
2018-06-22T18:40:12.334Z,17.09
2018-06-22T18:42:40.865Z,17.05
2018-06-22T18:45:11.416Z,17.06
2018-06-22T18:47:40.665Z,17.06
2018-06-22T18:50:09.508Z,17.00
2018-06-22T18:52:43.486Z,16.90
2018-06-22T18:57:45.764Z,16.85
2018-06-22T19:00:20.099Z,16.78
2018-06-22T19:02:54.584Z,16.80
2018-06-22T19:05:23.457Z,16.78
2018-06-22T19:07:52.029Z,16.67
2018-06-22T19:10:20.608Z,16.70
2018-06-22T19:12:49.113Z,16.61
2018-06-22T19:15:22.780Z,16.62
2018-06-22T19:17:51.457Z,16.48
2018-06-22T19:20:19.955Z,16.32
2018-06-22T19:22:48.329Z,16.41
2018-06-22T19:25:16.857Z,16.40
2018-06-22T19:27:45.419Z,16.35
2018-06-22T19:30:14.292Z,16.32
2018-06-22T19:32:43.455Z,16.37
2018-06-22T19:35:13.548Z,16.28
2018-06-22T19:37:43.639Z,16.25
2018-06-22T19:40:12.493Z,16.18
2018-06-22T19:42:41.218Z,16.26
2018-06-22T19:45:15.233Z,16.23
2018-06-22T19:47:49.648Z,16.07
2018-06-22T19:51:26.690Z,16.12
2018-06-22T19:53:58.255Z,16.09
2018-06-22T19:56:27.015Z,16.09
2018-06-22T19:58:55.767Z,15.99
2018-06-22T20:01:24.369Z,16.02
2018-06-22T20:03:53.003Z,15.99
2018-06-22T20:06:21.769Z,15.84
2018-06-22T20:08:50.357Z,15.69
2018-06-22T20:11:18.980Z,15.79
2018-06-22T20:13:47.619Z,15.79
2018-06-22T20:16:16.394Z,15.88
2018-06-22T20:18:45.143Z,15.77
2018-06-22T20:21:13.690Z,15.82
2018-06-22T20:23:42.185Z,15.84
2018-06-22T20:26:10.987Z,15.76
2018-06-22T20:28:39.581Z,15.84
2018-06-22T20:31:08.353Z,15.93
2018-06-22T20:33:36.890Z,15.86
2018-06-22T20:36:11.279Z,15.89
2018-06-22T20:38:45.507Z,15.88
2018-06-22T20:41:19.356Z,15.86
2018-06-22T20:43:53.485Z,15.79
2018-06-22T20:46:27.620Z,15.80
2018-06-22T20:51:09.044Z,15.82
2018-06-22T20:53:37.373Z,15.66
2018-06-22T20:56:05.875Z,15.62
2018-06-22T20:58:34.768Z,15.63
2018-06-22T21:01:03.512Z,15.63
2018-06-22T21:03:32.040Z,15.55
2018-06-22T21:06:00.922Z,15.42
2018-06-22T21:08:29.473Z,15.41
2018-06-22T21:10:58.340Z,15.42
2018-06-22T21:13:26.979Z,15.50
2018-06-22T21:15:55.732Z,15.38
2018-06-22T21:18:24.293Z,15.31
2018-06-22T21:20:58.265Z,15.31
2018-06-22T21:23:26.906Z,15.26
2018-06-22T21:25:55.525Z,15.28
2018-06-22T21:29:33.759Z,15.30
2018-06-22T21:32:07.941Z,15.35
2018-06-22T21:34:40.981Z,15.31
2018-06-22T21:37:15.301Z,15.33
2018-06-22T21:39:43.532Z,15.21
2018-06-22T21:42:12.083Z,15.31
2018-06-22T21:44:40.794Z,15.17
2018-06-22T21:47:09.515Z,15.22
2018-06-22T21:49:38.194Z,15.18
2018-06-22T21:52:07.015Z,15.18
2018-06-22T21:54:35.670Z,15.16
2018-06-22T21:57:04.440Z,15.28
2018-06-22T21:59:32.950Z,15.17
2018-06-22T22:02:01.467Z,15.10
2018-06-22T22:04:42.503Z,15.05
2018-06-22T22:07:12.381Z,15.08
2018-06-22T22:09:43.022Z,14.96
2018-06-22T22:12:13.012Z,15.14
2018-06-22T22:14:42.928Z,15.07
2018-06-22T22:17:12.077Z,14.97
2018-06-22T22:19:41.834Z,15.06
2018-06-22T22:22:11.788Z,15.08
2018-06-22T22:24:41.380Z,15.19
2018-06-22T22:27:11.438Z,15.15
2018-06-22T22:29:41.311Z,15.17
2018-06-22T22:32:11.287Z,15.14
2018-06-22T22:34:41.618Z,15.18
2018-06-22T22:37:11.528Z,15.14
2018-06-22T22:39:41.989Z,15.24
2018-06-22T22:42:13.265Z,15.37
2018-06-22T22:44:44.136Z,15.20
2018-06-22T22:47:14.081Z,15.14
2018-06-22T22:49:44.430Z,15.18
2018-06-22T22:52:14.965Z,15.00
2018-06-22T22:54:44.861Z,15.11
2018-06-22T22:57:14.981Z,15.13
2018-06-22T22:59:44.571Z,15.31
2018-06-22T23:02:14.180Z,15.29
2018-06-22T23:04:43.800Z,15.25
2018-06-22T23:07:12.611Z,15.26
2018-06-22T23:09:41.622Z,15.23
2018-06-22T23:12:10.581Z,15.18
2018-06-22T23:14:39.348Z,15.01
2018-06-22T23:17:10.300Z,15.10
2018-06-22T23:19:40.260Z,15.07
2018-06-22T23:22:10.199Z,15.05
2018-06-22T23:24:42.720Z,14.99
2018-06-22T23:27:11.512Z,14.95
2018-06-22T23:29:40.900Z,14.91
2018-06-22T23:32:09.792Z,14.83
2018-06-22T23:34:39.093Z,14.82
2018-06-22T23:37:17.191Z,14.88
2018-06-22T23:40:08.972Z,14.92
2018-06-22T23:42:41.102Z,14.86
2018-06-22T23:45:10.301Z,14.96
2018-06-22T23:48:04.443Z,14.91
2018-06-22T23:50:33.564Z,14.71
2018-06-22T23:53:02.481Z,14.84
2018-06-22T23:55:32.724Z,14.76
2018-06-22T23:58:01.586Z,14.69
